Time;durP1;ratioP1;P1;durP2;ratioP2;P2;SDS_P1;SDS_P2;PMS_P1;PMS_P2;Temp;Humidity;BMP_temperature;BMP_pressure;BME280_temperature;BME280_humidity;BME280_pressure;Samples;Min_cycle;Max_cycle;Signal;HPM_P1;HPM_P2
2023/08/28 00:02:03;;;;;;;9.70;8.83;;;;;;;;;;5074899;28;20436;-67
2023/08/28 00:04:30;;;;;;;10.37;9.27;;;;;;;;;;5074975;28;20495;-66
2023/08/28 00:06:57;;;;;;;10.47;8.40;;;;;;;;;;5075610;28;20790;-67
2023/08/28 00:09:24;;;;;;;9.80;8.90;;;;;;;;;;5075216;28;20453;-66
2023/08/28 00:11:51;;;;;;;9.70;8.73;;;;;;;;;;5075067;28;20478;-66
2023/08/28 00:14:19;;;;;;;10.20;9.20;;;;;;;;;;5074927;28;20444;-66
2023/08/28 00:16:47;;;;;;;9.63;8.80;;;;;;;;;;5075048;28;20858;-66
2023/08/28 00:19:14;;;;;;;11.40;9.17;;;;;;;;;;5074768;28;20529;-66
2023/08/28 00:21:42;;;;;;;9.37;8.47;;;;;;;;;;5074519;28;20503;-66
2023/08/28 00:24:09;;;;;;;11.00;9.13;;;;;;;;;;5074836;28;21017;-66
2023/08/28 00:26:36;;;;;;;12.93;9.43;;;;;;;;;;5075127;28;20438;-66
2023/08/28 00:29:03;;;;;;;11.70;9.20;;;;;;;;;;5074632;28;20446;-66
2023/08/28 00:31:31;;;;;;;10.40;9.47;;;;;;;;;;5074889;28;20478;-66
2023/08/28 00:33:59;;;;;;;10.10;9.10;;;;;;;;;;5074748;28;20464;-67
2023/08/28 00:36:26;;;;;;;12.27;9.50;;;;;;;;;;5074832;28;20538;-66
2023/08/28 00:38:53;;;;;;;10.40;9.50;;;;;;;;;;5074205;28;20443;-67
2023/08/28 00:41:21;;;;;;;11.30;10.20;;;;;;;;;;5074096;28;20438;-67
2023/08/28 00:43:48;;;;;;;9.97;9.07;;;;;;;;;;5074724;28;20533;-66
2023/08/28 00:46:15;;;;;;;9.97;9.07;;;;;;;;;;5074006;28;20440;-66
2023/08/28 00:48:43;;;;;;;10.47;9.37;;;;;;;;;;5074265;28;20438;-66
2023/08/28 00:51:11;;;;;;;10.93;8.93;;;;;;;;;;5074285;28;20504;-66
2023/08/28 00:53:38;;;;;;;10.30;9.17;;;;;;;;;;5074143;28;20577;-66
2023/08/28 00:56:06;;;;;;;13.20;10.03;;;;;;;;;;5074194;28;20465;-66
2023/08/28 00:58:33;;;;;;;11.20;10.10;;;;;;;;;;5074111;28;20457;-66
2023/08/28 01:01:01;;;;;;;12.10;9.60;;;;;;;;;;5073677;28;20435;-66
2023/08/28 01:03:28;;;;;;;12.90;9.73;;;;;;;;;;5073955;28;20442;-66
2023/08/28 01:05:58;;;;;;;11.33;10.27;;;;;;;;;;5073686;28;20438;-66
2023/08/28 01:08:29;;;;;;;11.50;10.40;;;;;;;;;;5073734;28;20437;-66
2023/08/28 01:10:58;;;;;;;11.70;10.60;;;;;;;;;;5074271;28;20466;-67
2023/08/28 01:13:30;;;;;;;10.93;10.03;;;;;;;;;;5073427;28;20511;-67
2023/08/28 01:15:57;;;;;;;10.47;9.47;;;;;;;;;;5073471;28;20904;-66
2023/08/28 01:18:24;;;;;;;11.10;10.00;;;;;;;;;;5073173;28;20438;-66
2023/08/28 01:20:53;;;;;;;11.80;10.70;;;;;;;;;;5074005;28;20463;-66
2023/08/28 01:23:23;;;;;;;11.30;10.30;;;;;;;;;;5073153;28;20450;-66
2023/08/28 01:25:53;;;;;;;11.40;9.77;;;;;;;;;;5073568;28;20438;-66
2023/08/28 01:28:21;;;;;;;12.60;11.40;;;;;;;;;;5073252;28;20452;-67
2023/08/28 01:30:51;;;;;;;10.07;9.23;;;;;;;;;;5073187;28;20481;-66
2023/08/28 01:33:18;;;;;;;11.57;10.37;;;;;;;;;;5073169;28;20470;-66
2023/08/28 01:35:48;;;;;;;11.33;10.07;;;;;;;;;;5073692;28;20790;-66
2023/08/28 01:38:21;;;;;;;11.53;10.43;;;;;;;;;;5073176;28;20945;-67
2023/08/28 01:40:51;;;;;;;11.30;10.30;;;;;;;;;;5073783;28;20846;-67
2023/08/28 01:43:21;;;;;;;12.10;10.80;;;;;;;;;;5073661;28;20466;-67
2023/08/28 01:45:49;;;;;;;12.40;10.87;;;;;;;;;;5073968;28;20422;-67
2023/08/28 01:48:16;;;;;;;12.73;11.50;;;;;;;;;;5073603;28;20450;-67
2023/08/28 01:50:43;;;;;;;11.47;10.37;;;;;;;;;;5072976;28;21076;-66
2023/08/28 01:53:10;;;;;;;15.70;11.40;;;;;;;;;;5073188;28;20557;-66
2023/08/28 01:55:58;;;;;;;13.40;12.20;;;;;;;;;;5073408;28;20522;-66
2023/08/28 01:58:27;;;;;;;12.87;11.67;;;;;;;;;;5047884;28;20454;-67
2023/08/28 02:00:54;;;;;;;13.70;12.00;;;;;;;;;;5072973;28;20530;-67
2023/08/28 02:03:21;;;;;;;12.13;11.03;;;;;;;;;;5073240;28;20789;-67
2023/08/28 02:05:48;;;;;;;12.90;11.70;;;;;;;;;;5073133;28;20478;-66
2023/08/28 02:08:15;;;;;;;10.70;9.77;;;;;;;;;;5073196;28;20521;-66
2023/08/28 02:10:42;;;;;;;12.50;11.23;;;;;;;;;;5073004;28;20485;-66
2023/08/28 02:13:10;;;;;;;12.07;10.87;;;;;;;;;;5073136;28;20473;-66
2023/08/28 02:15:38;;;;;;;12.50;11.23;;;;;;;;;;5072695;28;20449;-67
2023/08/28 02:18:06;;;;;;;11.93;10.83;;;;;;;;;;5073202;28;20803;-67
2023/08/28 02:20:33;;;;;;;16.87;10.27;;;;;;;;;;5072903;28;20441;-67
2023/08/28 02:23:00;;;;;;;13.63;11.67;;;;;;;;;;5073190;28;20490;-67
2023/08/28 02:25:27;;;;;;;10.80;9.70;;;;;;;;;;5075571;28;20448;-66
2023/08/28 02:27:54;;;;;;;12.30;11.23;;;;;;;;;;5077082;28;20448;-66
2023/08/28 02:30:22;;;;;;;12.03;10.93;;;;;;;;;;5076888;28;20733;-66
2023/08/28 02:32:50;;;;;;;10.73;9.73;;;;;;;;;;5076968;28;20536;-67
2023/08/28 02:35:17;;;;;;;12.97;11.20;;;;;;;;;;5076922;28;20474;-66
2023/08/28 02:37:45;;;;;;;13.03;11.77;;;;;;;;;;5076489;28;20533;-67
2023/08/28 02:40:12;;;;;;;12.33;11.13;;;;;;;;;;5076411;28;20440;-67
2023/08/28 02:42:39;;;;;;;11.93;10.83;;;;;;;;;;5076727;28;20526;-66
2023/08/28 02:45:07;;;;;;;12.83;11.63;;;;;;;;;;5076736;28;20793;-66
2023/08/28 02:47:34;;;;;;;13.23;11.77;;;;;;;;;;5076690;28;20444;-66
2023/08/28 02:50:04;;;;;;;11.97;10.87;;;;;;;;;;5076124;28;20477;-66
2023/08/28 02:52:31;;;;;;;13.73;12.37;;;;;;;;;;5076432;28;20531;-66
2023/08/28 02:54:58;;;;;;;13.50;12.23;;;;;;;;;;5076759;28;20473;-67
2023/08/28 02:57:25;;;;;;;15.30;12.30;;;;;;;;;;5076029;28;20463;-67
2023/08/28 02:59:52;;;;;;;15.07;13.60;;;;;;;;;;5076411;28;20441;-67
2023/08/28 03:02:20;;;;;;;13.07;11.80;;;;;;;;;;5076620;28;20438;-67
2023/08/28 03:04:48;;;;;;;12.63;11.53;;;;;;;;;;5076471;28;20465;-67
2023/08/28 03:07:17;;;;;;;15.07;12.37;;;;;;;;;;5075990;28;20476;-67
2023/08/28 03:09:45;;;;;;;13.00;11.70;;;;;;;;;;5076183;28;20932;-67
2023/08/28 03:12:12;;;;;;;13.70;12.40;;;;;;;;;;5075800;28;20477;-67
2023/08/28 03:14:39;;;;;;;14.40;13.20;;;;;;;;;;5075743;28;20817;-67
2023/08/28 03:17:07;;;;;;;15.13;13.23;;;;;;;;;;5076235;28;20532;-67
2023/08/28 03:19:34;;;;;;;14.00;12.60;;;;;;;;;;5076167;28;20530;-67
2023/08/28 03:22:01;;;;;;;14.43;13.07;;;;;;;;;;5076076;28;20616;-67
2023/08/28 03:24:30;;;;;;;15.63;13.20;;;;;;;;;;5076008;28;20437;-67
2023/08/28 03:26:57;;;;;;;14.63;13.33;;;;;;;;;;5075931;28;20438;-67
2023/08/28 03:29:24;;;;;;;14.67;13.27;;;;;;;;;;5075577;28;21009;-67
2023/08/28 03:31:51;;;;;;;19.37;12.43;;;;;;;;;;5075510;28;20830;-67
2023/08/28 03:34:18;;;;;;;15.83;14.33;;;;;;;;;;5075577;28;20528;-67
2023/08/28 03:36:46;;;;;;;15.73;14.10;;;;;;;;;;5074587;28;20438;-66
2023/08/28 03:39:13;;;;;;;15.80;14.40;;;;;;;;;;5075669;28;20528;-67
2023/08/28 03:41:41;;;;;;;16.20;13.67;;;;;;;;;;5075178;28;20437;-67
2023/08/28 03:44:09;;;;;;;13.93;12.73;;;;;;;;;;5075657;28;20464;-67
2023/08/28 03:46:36;;;;;;;14.23;12.83;;;;;;;;;;5075379;28;20475;-67
2023/08/28 03:49:03;;;;;;;14.90;13.57;;;;;;;;;;5075131;28;20518;-65
2023/08/28 03:51:30;;;;;;;16.53;13.60;;;;;;;;;;5074552;28;20509;-66
2023/08/28 03:53:58;;;;;;;19.40;15.00;;;;;;;;;;5075227;28;20561;-66
2023/08/28 03:56:25;;;;;;;20.53;13.50;;;;;;;;;;5075152;28;20810;-65
2023/08/28 03:58:53;;;;;;;14.53;13.00;;;;;;;;;;5075180;28;20434;-66
2023/08/28 04:01:21;;;;;;;16.30;13.93;;;;;;;;;;5074996;28;20780;-66
2023/08/28 04:03:48;;;;;;;16.60;15.10;;;;;;;;;;5075062;28;20522;-66
2023/08/28 04:06:15;;;;;;;15.87;14.17;;;;;;;;;;5074924;28;20533;-66
2023/08/28 04:08:42;;;;;;;16.10;14.50;;;;;;;;;;5074470;28;20485;-66
2023/08/28 04:11:09;;;;;;;15.30;13.90;;;;;;;;;;5074534;28;20438;-66
2023/08/28 04:13:36;;;;;;;15.97;14.33;;;;;;;;;;5074996;28;20474;-66
2023/08/28 04:16:06;;;;;;;15.23;13.73;;;;;;;;;;5074299;28;20441;-66
2023/08/28 04:18:33;;;;;;;18.93;15.87;;;;;;;;;;5074470;28;20436;-66
2023/08/28 04:21:00;;;;;;;17.33;15.57;;;;;;;;;;5085933;28;20515;-66
2023/08/28 04:23:27;;;;;;;17.37;15.57;;;;;;;;;;5095080;28;20539;-66
2023/08/28 04:25:54;;;;;;;18.17;16.37;;;;;;;;;;5094443;28;20476;-66
2023/08/28 04:28:21;;;;;;;17.00;15.10;;;;;;;;;;5094938;28;20436;-65
2023/08/28 04:30:49;;;;;;;16.97;15.37;;;;;;;;;;5094739;28;20445;-63
2023/08/28 04:33:17;;;;;;;17.47;15.77;;;;;;;;;;5094384;28;21016;-63
2023/08/28 04:35:44;;;;;;;16.87;14.67;;;;;;;;;;5094518;28;20440;-63
2023/08/28 04:38:12;;;;;;;17.73;16.03;;;;;;;;;;5094475;28;20429;-63
2023/08/28 04:40:39;;;;;;;17.23;15.20;;;;;;;;;;5094471;28;20453;-63
2023/08/28 04:43:06;;;;;;;17.17;15.47;;;;;;;;;;5094498;28;20851;-62
2023/08/28 04:45:34;;;;;;;17.70;15.47;;;;;;;;;;5094430;28;20440;-63
2023/08/28 04:48:01;;;;;;;17.63;15.73;;;;;;;;;;5093320;28;20795;-63
2023/08/28 04:50:30;;;;;;;17.70;15.90;;;;;;;;;;5094158;28;20470;-62
2023/08/28 04:52:57;;;;;;;20.10;15.87;;;;;;;;;;5093801;28;20488;-63
2023/08/28 04:55:24;;;;;;;17.00;15.27;;;;;;;;;;5094336;28;20818;-63
2023/08/28 04:57:52;;;;;;;19.50;17.40;;;;;;;;;;5094004;28;20453;-64
2023/08/28 05:00:19;;;;;;;20.80;17.23;;;;;;;;;;5094020;28;20442;-63
2023/08/28 05:02:47;;;;;;;18.90;16.90;;;;;;;;;;5093596;28;20860;-63
2023/08/28 05:05:14;;;;;;;21.80;18.57;;;;;;;;;;5093914;28;20463;-63
2023/08/28 05:07:42;;;;;;;20.13;17.13;;;;;;;;;;5093802;28;20431;-63
2023/08/28 05:10:10;;;;;;;19.97;16.57;;;;;;;;;;5093914;28;20455;-63
2023/08/28 05:12:37;;;;;;;21.43;18.80;;;;;;;;;;5093663;28;20479;-63
2023/08/28 05:15:05;;;;;;;19.43;17.33;;;;;;;;;;5093561;28;20649;-63
2023/08/28 05:17:32;;;;;;;20.60;18.43;;;;;;;;;;5093241;28;20480;-63
2023/08/28 05:19:59;;;;;;;21.27;18.27;;;;;;;;;;5093420;28;20770;-63
2023/08/28 05:22:26;;;;;;;22.00;18.00;;;;;;;;;;5093552;28;20531;-63
2023/08/28 05:24:55;;;;;;;21.00;18.80;;;;;;;;;;5093794;28;20523;-62
2023/08/28 05:27:22;;;;;;;20.90;18.90;;;;;;;;;;5093926;28;20467;-63
2023/08/28 05:29:53;;;;;;;22.07;18.27;;;;;;;;;;5093435;28;20440;-63
2023/08/28 05:32:20;;;;;;;23.43;18.50;;;;;;;;;;5093526;28;20464;-63
2023/08/28 05:34:48;;;;;;;24.70;19.10;;;;;;;;;;5094053;28;20523;-62
2023/08/28 05:37:15;;;;;;;20.07;17.90;;;;;;;;;;5093146;28;20542;-63
2023/08/28 05:39:43;;;;;;;20.73;18.53;;;;;;;;;;5093246;28;20526;-63
2023/08/28 05:42:11;;;;;;;25.70;19.50;;;;;;;;;;5093370;28;20502;-63
2023/08/28 05:44:39;;;;;;;20.77;18.67;;;;;;;;;;5093568;28;20446;-63
2023/08/28 05:47:06;;;;;;;21.23;19.10;;;;;;;;;;5093433;28;21012;-63
2023/08/28 05:49:33;;;;;;;20.20;17.47;;;;;;;;;;5093817;28;20438;-62
2023/08/28 05:52:00;;;;;;;20.50;18.50;;;;;;;;;;5092806;28;20473;-63
2023/08/28 05:54:27;;;;;;;21.57;18.77;;;;;;;;;;5093433;28;20468;-63
2023/08/28 05:56:55;;;;;;;22.37;20.03;;;;;;;;;;5093379;28;20860;-63
2023/08/28 05:59:23;;;;;;;21.80;19.30;;;;;;;;;;5093110;28;20462;-63
2023/08/28 06:01:50;;;;;;;21.57;18.23;;;;;;;;;;5092964;28;20536;-63
2023/08/28 06:04:17;;;;;;;19.10;17.10;;;;;;;;;;5093486;28;20747;-63
2023/08/28 06:06:45;;;;;;;22.23;18.87;;;;;;;;;;5092872;28;20447;-63
2023/08/28 06:09:12;;;;;;;24.63;17.97;;;;;;;;;;5093278;28;20525;-63
2023/08/28 06:11:39;;;;;;;21.00;18.80;;;;;;;;;;5092984;28;20820;-62
2023/08/28 06:14:07;;;;;;;20.23;18.13;;;;;;;;;;5093162;28;20517;-62
2023/08/28 06:16:36;;;;;;;19.20;17.10;;;;;;;;;;5093157;28;20540;-63
2023/08/28 06:19:03;;;;;;;21.70;19.33;;;;;;;;;;5092808;28;20952;-63
2023/08/28 06:21:31;;;;;;;20.23;18.27;;;;;;;;;;5093556;28;20444;-62
2023/08/28 06:23:58;;;;;;;18.50;16.80;;;;;;;;;;5093468;28;20442;-63
2023/08/28 06:26:25;;;;;;;20.40;18.30;;;;;;;;;;5093231;28;20445;-63
2023/08/28 06:28:52;;;;;;;17.93;16.20;;;;;;;;;;5093208;28;20445;-63
2023/08/28 06:31:19;;;;;;;20.60;18.30;;;;;;;;;;5092936;28;20521;-63
2023/08/28 06:33:48;;;;;;;19.00;17.00;;;;;;;;;;5093005;28;20511;-63
2023/08/28 06:36:15;;;;;;;20.57;17.63;;;;;;;;;;5093615;28;20437;-63
2023/08/28 06:38:42;;;;;;;21.30;19.10;;;;;;;;;;5092699;28;20445;-63
2023/08/28 06:41:09;;;;;;;19.50;17.57;;;;;;;;;;5092974;28;20437;-63
2023/08/28 06:43:37;;;;;;;18.00;16.20;;;;;;;;;;5092491;28;20442;-63
2023/08/28 06:46:04;;;;;;;20.10;18.00;;;;;;;;;;5092943;28;20452;-63
2023/08/28 06:48:31;;;;;;;21.70;16.03;;;;;;;;;;5092539;28;20477;-63
2023/08/28 06:51:00;;;;;;;20.07;17.87;;;;;;;;;;5092950;28;20869;-63
2023/08/28 06:53:27;;;;;;;23.80;17.20;;;;;;;;;;5092411;28;20490;-63
2023/08/28 06:55:54;;;;;;;18.80;17.10;;;;;;;;;;5093379;28;20442;-64
2023/08/28 06:58:21;;;;;;;18.60;16.70;;;;;;;;;;5092433;28;20438;-63
2023/08/28 07:00:48;;;;;;;19.23;16.37;;;;;;;;;;5092859;28;20928;-63
2023/08/28 07:03:16;;;;;;;19.00;16.97;;;;;;;;;;5092732;28;20836;-63
2023/08/28 07:05:43;;;;;;;17.73;15.90;;;;;;;;;;5092551;28;20537;-63
2023/08/28 07:08:11;;;;;;;17.10;15.30;;;;;;;;;;5092286;28;20442;-63
2023/08/28 07:10:38;;;;;;;18.27;15.73;;;;;;;;;;5092675;28;20441;-63
2023/08/28 07:13:06;;;;;;;17.30;15.47;;;;;;;;;;5096065;28;20557;-63
2023/08/28 07:15:51;;;;;;;17.70;15.90;;;;;;;;;;5096277;28;20446;-63
2023/08/28 07:18:18;;;;;;;18.00;16.10;;;;;;;;;;5096326;28;20509;-63
2023/08/28 07:20:45;;;;;;;20.00;16.27;;;;;;;;;;5095864;28;20437;-63
2023/08/28 07:23:14;;;;;;;18.20;15.17;;;;;;;;;;5095988;28;20447;-63
2023/08/28 07:25:41;;;;;;;16.70;15.13;;;;;;;;;;5095743;28;21049;-63
2023/08/28 07:28:08;;;;;;;15.33;13.83;;;;;;;;;;5095666;28;20950;-63
2023/08/28 07:30:36;;;;;;;20.63;16.23;;;;;;;;;;5095783;28;20438;-63
2023/08/28 07:33:03;;;;;;;20.27;16.33;;;;;;;;;;5095748;28;20573;-63
2023/08/28 07:35:34;;;;;;;15.70;14.07;;;;;;;;;;5095469;28;20521;-63
2023/08/28 07:38:03;;;;;;;16.60;14.80;;;;;;;;;;5095446;28;20435;-63
2023/08/28 07:40:32;;;;;;;18.03;14.60;;;;;;;;;;5095602;28;20562;-63
2023/08/28 07:42:59;;;;;;;19.43;14.87;;;;;;;;;;5095568;28;20567;-63
2023/08/28 07:45:26;;;;;;;17.03;15.30;;;;;;;;;;5095930;28;20461;-63
2023/08/28 07:47:55;;;;;;;14.53;13.13;;;;;;;;;;5095444;28;20541;-63
2023/08/28 07:50:23;;;;;;;16.40;13.20;;;;;;;;;;5095243;28;20443;-63
2023/08/28 07:52:50;;;;;;;18.27;12.97;;;;;;;;;;5095250;28;20584;-63
2023/08/28 07:55:17;;;;;;;18.50;15.30;;;;;;;;;;5095517;28;20459;-63
2023/08/28 07:57:46;;;;;;;14.27;12.70;;;;;;;;;;5095511;28;20524;-63
2023/08/28 08:00:15;;;;;;;15.47;13.97;;;;;;;;;;5095056;28;20441;-63
2023/08/28 08:02:42;;;;;;;13.20;12.00;;;;;;;;;;5095474;28;20518;-63
2023/08/28 08:05:11;;;;;;;13.83;12.27;;;;;;;;;;5095293;28;20531;-63
2023/08/28 08:07:40;;;;;;;12.87;11.67;;;;;;;;;;5095293;28;20439;-63
2023/08/28 08:10:08;;;;;;;12.43;11.23;;;;;;;;;;5095209;28;20437;-63
2023/08/28 08:12:35;;;;;;;11.87;10.83;;;;;;;;;;5094806;28;20573;-63
2023/08/28 08:15:04;;;;;;;13.13;11.90;;;;;;;;;;5094908;28;20434;-63
2023/08/28 08:17:31;;;;;;;15.13;12.17;;;;;;;;;;5094884;28;20439;-64
2023/08/28 08:19:58;;;;;;;11.97;10.87;;;;;;;;;;5094720;28;20928;-63
2023/08/28 08:22:25;;;;;;;11.47;10.30;;;;;;;;;;5094440;28;20492;-63
2023/08/28 08:24:52;;;;;;;13.27;9.87;;;;;;;;;;5094845;28;20448;-63
2023/08/28 08:27:20;;;;;;;11.83;10.70;;;;;;;;;;5094691;28;21006;-63
2023/08/28 08:29:48;;;;;;;12.27;10.90;;;;;;;;;;5094775;28;20525;-63
2023/08/28 08:32:17;;;;;;;10.03;9.13;;;;;;;;;;5095118;28;20447;-63
2023/08/28 08:34:45;;;;;;;10.63;7.93;;;;;;;;;;5094411;28;20447;-63
2023/08/28 08:37:12;;;;;;;8.63;7.63;;;;;;;;;;5094410;28;20442;-63
2023/08/28 08:39:40;;;;;;;12.37;7.47;;;;;;;;;;5094085;28;20481;-63
2023/08/28 08:42:07;;;;;;;9.37;8.47;;;;;;;;;;5095316;28;20844;-63
2023/08/28 08:44:34;;;;;;;8.97;8.10;;;;;;;;;;5094590;28;20520;-63
2023/08/28 08:47:03;;;;;;;7.53;6.83;;;;;;;;;;5094604;28;20437;-63
2023/08/28 08:49:33;;;;;;;8.93;4.70;;;;;;;;;;5095073;28;20441;-63
2023/08/28 08:52:03;;;;;;;6.53;4.50;;;;;;;;;;5094453;28;20867;-64
2023/08/28 08:54:32;;;;;;;5.07;4.67;;;;;;;;;;5094485;28;20578;-63
2023/08/28 08:57:00;;;;;;;4.27;3.97;;;;;;;;;;5094082;28;20431;-63
2023/08/28 08:59:28;;;;;;;6.50;3.90;;;;;;;;;;5094125;28;20439;-63
2023/08/28 09:01:55;;;;;;;5.57;4.20;;;;;;;;;;5094097;28;20458;-63
2023/08/28 09:04:25;;;;;;;3.60;3.30;;;;;;;;;;5093868;28;20439;-63
2023/08/28 09:06:54;;;;;;;5.67;3.80;;;;;;;;;;5094035;28;20439;-63
2023/08/28 09:09:23;;;;;;;5.33;3.33;;;;;;;;;;5094277;28;20535;-63
2023/08/28 09:11:50;;;;;;;8.20;3.80;;;;;;;;;;5094646;28;20814;-63
2023/08/28 09:14:17;;;;;;;5.77;3.43;;;;;;;;;;5094206;28;20569;-63
2023/08/28 09:16:44;;;;;;;5.63;4.30;;;;;;;;;;5093707;28;20628;-63
2023/08/28 09:19:12;;;;;;;3.63;3.33;;;;;;;;;;5094026;28;20532;-64
2023/08/28 09:21:39;;;;;;;3.90;3.60;;;;;;;;;;5094088;28;20785;-63
2023/08/28 09:24:10;;;;;;;3.60;3.27;;;;;;;;;;5093659;28;20447;-63
2023/08/28 09:26:38;;;;;;;4.10;3.70;;;;;;;;;;5093882;28;20519;-63
2023/08/28 09:29:07;;;;;;;3.70;3.40;;;;;;;;;;5093487;28;20925;-63
2023/08/28 09:31:35;;;;;;;4.23;3.47;;;;;;;;;;5093649;28;20434;-63
2023/08/28 09:34:03;;;;;;;3.30;2.80;;;;;;;;;;5093187;28;20556;-63
2023/08/28 09:36:31;;;;;;;3.33;2.03;;;;;;;;;;5093361;28;20454;-63
2023/08/28 09:39:00;;;;;;;2.70;2.50;;;;;;;;;;5093783;28;20855;-63
2023/08/28 09:41:37;;;;;;;2.67;2.47;;;;;;;;;;5093581;28;20435;-63
2023/08/28 09:44:05;;;;;;;2.40;2.20;;;;;;;;;;5093635;28;20458;-63
2023/08/28 09:46:33;;;;;;;2.07;1.80;;;;;;;;;;5093480;28;20451;-63
2023/08/28 09:49:00;;;;;;;2.03;1.93;;;;;;;;;;5093972;28;20884;-63
2023/08/28 09:51:39;;;;;;;2.27;2.10;;;;;;;;;;5093509;28;20480;-63
2023/08/28 09:54:06;;;;;;;2.17;1.73;;;;;;;;;;5092962;28;20933;-63
2023/08/28 09:56:33;;;;;;;2.27;1.90;;;;;;;;;;5093391;28;20526;-63
2023/08/28 09:59:03;;;;;;;3.83;2.20;;;;;;;;;;5093451;28;20533;-63
2023/08/28 10:01:31;;;;;;;3.63;1.90;;;;;;;;;;5093591;28;20431;-63
2023/08/28 10:03:59;;;;;;;2.87;1.93;;;;;;;;;;5093131;28;20453;-63
2023/08/28 10:06:27;;;;;;;2.10;1.90;;;;;;;;;;5092909;28;20559;-63
2023/08/28 10:08:55;;;;;;;2.07;1.90;;;;;;;;;;5093809;28;20443;-63
2023/08/28 10:11:23;;;;;;;2.70;2.50;;;;;;;;;;5093347;28;20529;-63
2023/08/28 10:13:51;;;;;;;3.27;1.90;;;;;;;;;;5092914;28;20471;-63
2023/08/28 10:16:21;;;;;;;2.30;2.10;;;;;;;;;;5093183;28;20435;-63
2023/08/28 10:18:51;;;;;;;2.03;1.83;;;;;;;;;;5093577;28;20427;-63
2023/08/28 10:21:18;;;;;;;2.10;2.00;;;;;;;;;;5093101;28;20541;-63
2023/08/28 10:23:46;;;;;;;4.23;2.27;;;;;;;;;;5093856;28;20454;-63
2023/08/28 10:26:14;;;;;;;3.73;2.13;;;;;;;;;;5093406;28;20525;-63
2023/08/28 10:28:42;;;;;;;3.07;2.40;;;;;;;;;;5093192;28;20474;-63
2023/08/28 10:31:10;;;;;;;1.90;1.80;;;;;;;;;;5093054;28;20496;-63
2023/08/28 10:33:39;;;;;;;3.10;2.17;;;;;;;;;;5093026;28;20859;-63
2023/08/28 10:36:09;;;;;;;2.53;2.33;;;;;;;;;;5092879;28;20436;-63
2023/08/28 10:38:36;;;;;;;3.87;2.30;;;;;;;;;;5093840;28;20419;-63
2023/08/28 10:41:05;;;;;;;2.53;2.37;;;;;;;;;;5092813;28;20461;-63
2023/08/28 10:43:33;;;;;;;3.00;2.33;;;;;;;;;;5093125;28;20535;-63
2023/08/28 10:46:03;;;;;;;2.23;2.03;;;;;;;;;;5094635;28;21007;-63
2023/08/28 10:48:30;;;;;;;3.23;1.70;;;;;;;;;;5096840;28;20470;-64
2023/08/28 10:50:59;;;;;;;2.00;1.70;;;;;;;;;;5096694;28;20447;-63
2023/08/28 10:53:27;;;;;;;1.90;1.80;;;;;;;;;;5096477;28;20492;-64
2023/08/28 10:55:56;;;;;;;1.80;1.70;;;;;;;;;;5096295;28;20442;-64
2023/08/28 10:58:23;;;;;;;2.53;2.00;;;;;;;;;;5096944;28;20480;-64
2023/08/28 11:00:50;;;;;;;2.63;2.13;;;;;;;;;;5096759;28;20521;-63
2023/08/28 11:03:18;;;;;;;2.67;1.90;;;;;;;;;;5096385;28;20533;-64
2023/08/28 11:05:45;;;;;;;3.13;1.80;;;;;;;;;;5096515;28;20485;-63
2023/08/28 11:08:15;;;;;;;2.17;1.80;;;;;;;;;;5096492;28;20467;-63
2023/08/28 11:10:45;;;;;;;3.43;2.13;;;;;;;;;;5096917;28;20526;-64
2023/08/28 11:13:20;;;;;;;2.47;1.70;;;;;;;;;;5096336;28;20438;-64
2023/08/28 11:15:49;;;;;;;5.63;3.37;;;;;;;;;;5096743;28;20458;-64
2023/08/28 11:18:34;;;;;;;2.60;1.70;;;;;;;;;;5096375;28;20440;-64
2023/08/28 11:21:02;;;;;;;1.57;1.47;;;;;;;;;;5097099;28;20495;-63
2023/08/28 11:23:35;;;;;;;3.97;1.40;;;;;;;;;;5095846;28;20438;-63
2023/08/28 11:26:04;;;;;;;1.60;1.50;;;;;;;;;;5096009;28;20416;-63
2023/08/28 11:28:32;;;;;;;2.93;1.90;;;;;;;;;;5095682;28;20463;-63
2023/08/28 11:31:03;;;;;;;3.47;3.17;;;;;;;;;;5095639;28;20924;-64
2023/08/28 11:33:38;;;;;;;5.93;4.17;;;;;;;;;;5095683;28;20511;-63
2023/08/28 11:36:05;;;;;;;2.03;1.70;;;;;;;;;;5095588;28;20433;-63
2023/08/28 11:38:34;;;;;;;4.70;1.80;;;;;;;;;;5095635;28;20599;-63
2023/08/28 11:41:04;;;;;;;2.00;1.90;;;;;;;;;;5096011;28;20457;-64
2023/08/28 11:43:34;;;;;;;2.17;1.97;;;;;;;;;;5096341;28;20424;-63
2023/08/28 11:46:04;;;;;;;1.90;1.70;;;;;;;;;;5084292;28;20463;-64
2023/08/28 11:48:34;;;;;;;2.93;1.60;;;;;;;;;;5088394;28;20436;-64
2023/08/28 11:51:03;;;;;;;2.77;2.07;;;;;;;;;;5095235;28;20478;-64
2023/08/28 11:53:31;;;;;;;3.13;2.00;;;;;;;;;;5095353;28;20494;-64
2023/08/28 11:56:03;;;;;;;1.83;1.60;;;;;;;;;;5095265;28;20959;-63
2023/08/28 11:58:30;;;;;;;2.90;1.63;;;;;;;;;;5094911;28;20828;-64
2023/08/28 12:00:58;;;;;;;1.80;1.70;;;;;;;;;;5095633;28;20792;-63
2023/08/28 12:03:25;;;;;;;3.93;1.70;;;;;;;;;;5095035;28;20446;-63
2023/08/28 12:06:01;;;;;;;2.73;1.87;;;;;;;;;;5095417;28;20471;-64
2023/08/28 12:08:28;;;;;;;3.50;1.67;;;;;;;;;;5095001;28;20506;-64
2023/08/28 12:10:56;;;;;;;2.60;1.73;;;;;;;;;;5095253;28;20431;-64
2023/08/28 12:13:24;;;;;;;4.23;2.10;;;;;;;;;;5095084;28;20437;-64
2023/08/28 12:15:52;;;;;;;4.00;2.27;;;;;;;;;;5095066;28;20525;-64
2023/08/28 12:18:19;;;;;;;4.73;2.70;;;;;;;;;;5094805;28;20778;-63
2023/08/28 12:20:46;;;;;;;4.23;1.93;;;;;;;;;;5094758;28;20469;-63
2023/08/28 12:23:14;;;;;;;2.03;1.83;;;;;;;;;;5095002;28;20475;-64
2023/08/28 12:25:43;;;;;;;2.13;1.53;;;;;;;;;;5094000;28;20439;-64
2023/08/28 12:28:11;;;;;;;3.53;1.83;;;;;;;;;;5093761;28;20447;-64
2023/08/28 12:30:40;;;;;;;2.47;1.90;;;;;;;;;;5095082;28;20444;-64
2023/08/28 12:33:08;;;;;;;3.37;1.60;;;;;;;;;;5094848;28;20443;-64
2023/08/28 12:35:39;;;;;;;2.70;1.87;;;;;;;;;;5094815;28;20479;-64
2023/08/28 12:38:06;;;;;;;5.40;1.80;;;;;;;;;;5094710;28;20433;-64
2023/08/28 12:40:35;;;;;;;2.10;1.90;;;;;;;;;;5094338;28;20443;-64
2023/08/28 12:43:03;;;;;;;3.67;1.80;;;;;;;;;;5094179;28;20438;-63
2023/08/28 12:45:31;;;;;;;2.50;2.20;;;;;;;;;;5094755;28;20954;-64
2023/08/28 12:47:59;;;;;;;1.63;1.50;;;;;;;;;;5094233;28;20446;-65
2023/08/28 12:50:26;;;;;;;1.80;1.70;;;;;;;;;;5094269;28;20431;-65
2023/08/28 12:52:54;;;;;;;3.13;1.60;;;;;;;;;;5093962;28;20450;-64
2023/08/28 12:55:21;;;;;;;1.83;1.70;;;;;;;;;;5094558;28;20467;-64
2023/08/28 12:57:48;;;;;;;2.00;1.90;;;;;;;;;;5094189;28;20520;-64
2023/08/28 13:00:16;;;;;;;1.73;1.50;;;;;;;;;;5094530;28;20438;-64
2023/08/28 13:02:44;;;;;;;3.93;1.50;;;;;;;;;;5094169;28;20560;-65
2023/08/28 13:05:13;;;;;;;1.97;1.60;;;;;;;;;;5093934;28;20478;-65
2023/08/28 13:07:40;;;;;;;3.70;2.00;;;;;;;;;;5094168;28;20522;-64
2023/08/28 13:10:08;;;;;;;5.40;3.90;;;;;;;;;;5092963;28;20999;-65
2023/08/28 13:12:35;;;;;;;4.17;2.37;;;;;;;;;;5094118;28;20512;-65
2023/08/28 13:15:04;;;;;;;2.17;1.50;;;;;;;;;;5093773;28;20566;-64
2023/08/28 13:17:31;;;;;;;1.83;1.73;;;;;;;;;;5093967;28;20444;-65
2023/08/28 13:19:58;;;;;;;1.97;1.87;;;;;;;;;;5094004;28;20432;-65
2023/08/28 13:22:27;;;;;;;2.37;1.70;;;;;;;;;;5093738;28;20448;-65
2023/08/28 13:24:55;;;;;;;2.40;1.77;;;;;;;;;;5093988;28;20464;-64
2023/08/28 13:27:22;;;;;;;1.67;1.50;;;;;;;;;;5093758;28;20800;-65
2023/08/28 13:29:49;;;;;;;4.70;1.90;;;;;;;;;;5093611;28;20433;-64
2023/08/28 13:32:16;;;;;;;3.63;1.87;;;;;;;;;;5093391;28;20472;-63
2023/08/28 13:34:44;;;;;;;3.00;1.90;;;;;;;;;;5093137;28;21060;-64
2023/08/28 13:37:11;;;;;;;2.13;1.93;;;;;;;;;;5094100;28;20548;-63
2023/08/28 13:39:40;;;;;;;1.73;1.63;;;;;;;;;;5093250;28;20439;-64
2023/08/28 13:42:07;;;;;;;1.60;1.50;;;;;;;;;;5093510;28;20847;-62
2023/08/28 13:44:35;;;;;;;2.03;1.70;;;;;;;;;;5093162;28;20443;-64
2023/08/28 13:47:03;;;;;;;2.80;1.60;;;;;;;;;;5093493;28;20436;-64
2023/08/28 13:49:31;;;;;;;2.33;1.60;;;;;;;;;;5093569;28;20439;-64
2023/08/28 13:51:58;;;;;;;4.77;2.10;;;;;;;;;;5093456;28;20518;-64
2023/08/28 13:54:25;;;;;;;2.90;1.80;;;;;;;;;;5093377;28;20541;-62
2023/08/28 13:56:54;;;;;;;5.67;2.00;;;;;;;;;;5093183;28;20433;-62
2023/08/28 13:59:21;;;;;;;1.50;1.40;;;;;;;;;;5093057;28;20433;-62
2023/08/28 14:01:48;;;;;;;3.47;1.93;;;;;;;;;;5092912;28;20482;-62
2023/08/28 14:04:15;;;;;;;1.90;1.70;;;;;;;;;;5093150;28;20448;-62
2023/08/28 14:06:42;;;;;;;8.13;2.00;;;;;;;;;;5092736;28;20466;-63
2023/08/28 14:09:09;;;;;;;2.27;2.03;;;;;;;;;;5092915;28;20536;-63
2023/08/28 14:11:37;;;;;;;4.77;2.10;;;;;;;;;;5092839;28;20540;-63
2023/08/28 14:14:05;;;;;;;2.00;1.90;;;;;;;;;;5093434;28;20447;-62
2023/08/28 14:16:32;;;;;;;2.33;1.90;;;;;;;;;;5093060;28;20436;-62
2023/08/28 14:19:00;;;;;;;2.00;1.80;;;;;;;;;;5092638;28;20439;-61
2023/08/28 14:21:28;;;;;;;2.90;2.00;;;;;;;;;;5095312;28;20471;-62
2023/08/28 14:23:55;;;;;;;7.43;2.10;;;;;;;;;;5097019;28;20457;-62
2023/08/28 14:26:22;;;;;;;3.47;2.20;;;;;;;;;;5096020;28;20522;-62
2023/08/28 14:28:50;;;;;;;1.70;1.60;;;;;;;;;;5096337;28;20505;-62
2023/08/28 14:31:18;;;;;;;1.70;1.60;;;;;;;;;;5096623;28;20522;-62
2023/08/28 14:33:46;;;;;;;1.70;1.60;;;;;;;;;;5096464;28;20515;-62